sensor_id;sensor_type;location;lat;lon;timestamp;temperature;humidity
55828;DHT22;41758;51.992;5.890;2024-03-07T00:01:29;11.40;68.40
55828;DHT22;41758;51.992;5.890;2024-03-07T00:03:57;11.40;68.30
55828;DHT22;41758;51.992;5.890;2024-03-07T00:06:23;11.40;68.30
55828;DHT22;41758;51.992;5.890;2024-03-07T00:08:48;11.40;68.30
55828;DHT22;41758;51.992;5.890;2024-03-07T00:11:14;11.30;68.30
55828;DHT22;41758;51.992;5.890;2024-03-07T00:13:40;11.30;68.30
55828;DHT22;41758;51.992;5.890;2024-03-07T00:16:06;11.30;68.20
55828;DHT22;41758;51.992;5.890;2024-03-07T00:18:31;11.20;67.90
55828;DHT22;41758;51.992;5.890;2024-03-07T00:20:57;11.10;67.70
55828;DHT22;41758;51.992;5.890;2024-03-07T00:23:23;11.10;67.50
55828;DHT22;41758;51.992;5.890;2024-03-07T00:25:48;11.00;67.40
55828;DHT22;41758;51.992;5.890;2024-03-07T00:28:15;10.90;67.30
55828;DHT22;41758;51.992;5.890;2024-03-07T00:30:43;10.90;67.30
55828;DHT22;41758;51.992;5.890;2024-03-07T00:33:11;10.80;67.30
55828;DHT22;41758;51.992;5.890;2024-03-07T00:35:37;10.80;67.30
55828;DHT22;41758;51.992;5.890;2024-03-07T00:38:03;10.70;67.30
55828;DHT22;41758;51.992;5.890;2024-03-07T00:40:29;10.60;67.30
55828;DHT22;41758;51.992;5.890;2024-03-07T00:42:55;10.60;67.30
55828;DHT22;41758;51.992;5.890;2024-03-07T00:45:21;10.50;67.40
55828;DHT22;41758;51.992;5.890;2024-03-07T00:47:46;10.50;67.40
55828;DHT22;41758;51.992;5.890;2024-03-07T00:50:14;10.50;67.40
55828;DHT22;41758;51.992;5.890;2024-03-07T00:52:40;10.40;67.40
55828;DHT22;41758;51.992;5.890;2024-03-07T00:55:06;10.40;67.40
55828;DHT22;41758;51.992;5.890;2024-03-07T00:57:35;10.30;67.40
55828;DHT22;41758;51.992;5.890;2024-03-07T01:00:02;10.30;67.40
55828;DHT22;41758;51.992;5.890;2024-03-07T01:02:28;10.30;67.40
55828;DHT22;41758;51.992;5.890;2024-03-07T01:04:54;10.30;67.40
55828;DHT22;41758;51.992;5.890;2024-03-07T01:07:20;10.20;67.40
55828;DHT22;41758;51.992;5.890;2024-03-07T01:09:47;10.20;67.50
55828;DHT22;41758;51.992;5.890;2024-03-07T01:12:13;10.20;67.50
55828;DHT22;41758;51.992;5.890;2024-03-07T01:14:39;10.20;67.50
55828;DHT22;41758;51.992;5.890;2024-03-07T01:17:04;10.20;67.50
55828;DHT22;41758;51.992;5.890;2024-03-07T01:19:33;10.20;67.50
55828;DHT22;41758;51.992;5.890;2024-03-07T01:21:59;10.10;67.50
55828;DHT22;41758;51.992;5.890;2024-03-07T01:24:25;10.10;67.50
55828;DHT22;41758;51.992;5.890;2024-03-07T01:26:51;10.10;67.50
55828;DHT22;41758;51.992;5.890;2024-03-07T01:29:17;10.10;67.60
55828;DHT22;41758;51.992;5.890;2024-03-07T01:31:43;10.10;67.60
55828;DHT22;41758;51.992;5.890;2024-03-07T01:34:08;10.10;67.60
55828;DHT22;41758;51.992;5.890;2024-03-07T01:36:34;10.10;67.70
55828;DHT22;41758;51.992;5.890;2024-03-07T01:39:00;10.00;67.80
55828;DHT22;41758;51.992;5.890;2024-03-07T01:41:27;10.00;67.90
55828;DHT22;41758;51.992;5.890;2024-03-07T01:43:52;10.10;67.90
55828;DHT22;41758;51.992;5.890;2024-03-07T01:46:18;10.10;67.90
55828;DHT22;41758;51.992;5.890;2024-03-07T01:48:48;10.10;67.80
55828;DHT22;41758;51.992;5.890;2024-03-07T01:51:14;10.10;67.80
55828;DHT22;41758;51.992;5.890;2024-03-07T01:53:40;10.10;67.80
55828;DHT22;41758;51.992;5.890;2024-03-07T01:56:06;10.10;67.80
55828;DHT22;41758;51.992;5.890;2024-03-07T01:58:32;10.10;67.80
55828;DHT22;41758;51.992;5.890;2024-03-07T02:00:59;10.00;67.80
55828;DHT22;41758;51.992;5.890;2024-03-07T02:03:25;10.10;67.70
55828;DHT22;41758;51.992;5.890;2024-03-07T02:05:51;10.10;67.70
55828;DHT22;41758;51.992;5.890;2024-03-07T02:08:17;10.00;67.70
55828;DHT22;41758;51.992;5.890;2024-03-07T02:10:42;10.00;67.70
55828;DHT22;41758;51.992;5.890;2024-03-07T02:13:08;10.00;67.70
55828;DHT22;41758;51.992;5.890;2024-03-07T02:15:34;10.00;67.70
55828;DHT22;41758;51.992;5.890;2024-03-07T02:17:59;10.00;67.80
55828;DHT22;41758;51.992;5.890;2024-03-07T02:20:25;10.00;67.80
55828;DHT22;41758;51.992;5.890;2024-03-07T02:22:54;10.00;67.70
55828;DHT22;41758;51.992;5.890;2024-03-07T02:25:19;9.90;67.80
55828;DHT22;41758;51.992;5.890;2024-03-07T02:27:45;10.00;67.80
55828;DHT22;41758;51.992;5.890;2024-03-07T02:30:11;10.00;67.80
55828;DHT22;41758;51.992;5.890;2024-03-07T02:32:38;10.00;67.80
55828;DHT22;41758;51.992;5.890;2024-03-07T02:35:04;10.00;67.90
55828;DHT22;41758;51.992;5.890;2024-03-07T02:37:30;10.00;67.90
55828;DHT22;41758;51.992;5.890;2024-03-07T02:39:56;10.00;67.90
55828;DHT22;41758;51.992;5.890;2024-03-07T02:42:22;9.90;67.90
55828;DHT22;41758;51.992;5.890;2024-03-07T02:44:47;10.00;67.90
55828;DHT22;41758;51.992;5.890;2024-03-07T02:47:13;10.00;67.80
55828;DHT22;41758;51.992;5.890;2024-03-07T02:49:39;10.00;67.80
55828;DHT22;41758;51.992;5.890;2024-03-07T02:52:05;10.00;67.80
55828;DHT22;41758;51.992;5.890;2024-03-07T02:54:33;9.90;67.80
55828;DHT22;41758;51.992;5.890;2024-03-07T02:56:59;10.00;67.90
55828;DHT22;41758;51.992;5.890;2024-03-07T02:59:24;9.90;67.90
55828;DHT22;41758;51.992;5.890;2024-03-07T03:01:50;9.90;67.90
55828;DHT22;41758;51.992;5.890;2024-03-07T03:04:16;9.90;67.90
55828;DHT22;41758;51.992;5.890;2024-03-07T03:06:43;9.90;68.00
55828;DHT22;41758;51.992;5.890;2024-03-07T03:09:08;9.90;67.90
55828;DHT22;41758;51.992;5.890;2024-03-07T03:11:39;10.00;67.90
55828;DHT22;41758;51.992;5.890;2024-03-07T03:14:04;9.90;67.90
55828;DHT22;41758;51.992;5.890;2024-03-07T03:16:30;9.90;67.80
55828;DHT22;41758;51.992;5.890;2024-03-07T03:18:56;9.90;67.80
55828;DHT22;41758;51.992;5.890;2024-03-07T03:21:23;9.90;67.80
55828;DHT22;41758;51.992;5.890;2024-03-07T03:23:49;9.90;67.70
55828;DHT22;41758;51.992;5.890;2024-03-07T03:26:14;9.90;67.70
55828;DHT22;41758;51.992;5.890;2024-03-07T03:28:41;9.90;67.60
55828;DHT22;41758;51.992;5.890;2024-03-07T03:31:07;9.90;67.60
55828;DHT22;41758;51.992;5.890;2024-03-07T03:33:34;9.80;67.50
55828;DHT22;41758;51.992;5.890;2024-03-07T03:36:00;9.80;67.50
55828;DHT22;41758;51.992;5.890;2024-03-07T03:38:26;9.80;67.50
55828;DHT22;41758;51.992;5.890;2024-03-07T03:40:52;9.70;67.40
55828;DHT22;41758;51.992;5.890;2024-03-07T03:43:17;9.70;67.40
55828;DHT22;41758;51.992;5.890;2024-03-07T03:45:44;9.70;67.40
55828;DHT22;41758;51.992;5.890;2024-03-07T03:48:10;9.70;67.40
55828;DHT22;41758;51.992;5.890;2024-03-07T03:50:36;9.60;67.40
55828;DHT22;41758;51.992;5.890;2024-03-07T03:53:02;9.60;67.40
55828;DHT22;41758;51.992;5.890;2024-03-07T03:55:29;9.60;67.30
55828;DHT22;41758;51.992;5.890;2024-03-07T03:57:55;9.50;67.40
55828;DHT22;41758;51.992;5.890;2024-03-07T04:00:20;9.50;67.40
55828;DHT22;41758;51.992;5.890;2024-03-07T04:02:48;9.50;67.40
55828;DHT22;41758;51.992;5.890;2024-03-07T04:05:16;9.40;67.40
55828;DHT22;41758;51.992;5.890;2024-03-07T04:07:42;9.40;67.50
55828;DHT22;41758;51.992;5.890;2024-03-07T04:10:08;9.40;67.40
55828;DHT22;41758;51.992;5.890;2024-03-07T04:12:35;9.40;67.50
55828;DHT22;41758;51.992;5.890;2024-03-07T04:15:03;9.30;67.50
55828;DHT22;41758;51.992;5.890;2024-03-07T04:17:30;9.30;67.40
55828;DHT22;41758;51.992;5.890;2024-03-07T04:19:56;9.30;67.50
55828;DHT22;41758;51.992;5.890;2024-03-07T04:22:24;9.30;67.50
55828;DHT22;41758;51.992;5.890;2024-03-07T04:24:50;9.30;67.50
55828;DHT22;41758;51.992;5.890;2024-03-07T04:27:20;9.30;67.50
55828;DHT22;41758;51.992;5.890;2024-03-07T04:29:46;9.30;67.50
55828;DHT22;41758;51.992;5.890;2024-03-07T04:32:15;9.30;67.50
55828;DHT22;41758;51.992;5.890;2024-03-07T04:34:43;9.20;67.60
55828;DHT22;41758;51.992;5.890;2024-03-07T04:37:09;9.20;67.50
55828;DHT22;41758;51.992;5.890;2024-03-07T04:39:34;9.20;67.50
55828;DHT22;41758;51.992;5.890;2024-03-07T04:42:04;9.20;67.50
55828;DHT22;41758;51.992;5.890;2024-03-07T04:44:32;9.20;67.50
55828;DHT22;41758;51.992;5.890;2024-03-07T04:46:59;9.20;67.50
55828;DHT22;41758;51.992;5.890;2024-03-07T04:49:27;9.20;67.50
55828;DHT22;41758;51.992;5.890;2024-03-07T04:52:01;9.10;67.60
55828;DHT22;41758;51.992;5.890;2024-03-07T04:54:28;9.20;67.60
55828;DHT22;41758;51.992;5.890;2024-03-07T04:56:54;9.10;67.60
55828;DHT22;41758;51.992;5.890;2024-03-07T04:59:21;9.10;67.60
55828;DHT22;41758;51.992;5.890;2024-03-07T05:01:48;9.10;67.60
55828;DHT22;41758;51.992;5.890;2024-03-07T05:04:15;9.10;67.60
55828;DHT22;41758;51.992;5.890;2024-03-07T05:06:42;9.10;67.50
55828;DHT22;41758;51.992;5.890;2024-03-07T05:09:09;9.10;67.50
55828;DHT22;41758;51.992;5.890;2024-03-07T05:11:47;9.10;67.50
55828;DHT22;41758;51.992;5.890;2024-03-07T05:14:12;9.00;67.50
55828;DHT22;41758;51.992;5.890;2024-03-07T05:16:38;9.00;67.40
55828;DHT22;41758;51.992;5.890;2024-03-07T05:19:03;9.00;67.40
55828;DHT22;41758;51.992;5.890;2024-03-07T05:21:30;9.00;67.40
55828;DHT22;41758;51.992;5.890;2024-03-07T05:24:03;9.00;67.50
55828;DHT22;41758;51.992;5.890;2024-03-07T05:26:29;8.90;67.60
55828;DHT22;41758;51.992;5.890;2024-03-07T05:29:03;8.90;67.60
55828;DHT22;41758;51.992;5.890;2024-03-07T05:31:39;8.90;67.70
55828;DHT22;41758;51.992;5.890;2024-03-07T05:34:15;8.90;67.70
55828;DHT22;41758;51.992;5.890;2024-03-07T05:36:41;8.90;67.70
55828;DHT22;41758;51.992;5.890;2024-03-07T05:39:11;8.90;67.70
55828;DHT22;41758;51.992;5.890;2024-03-07T05:41:37;8.90;67.70
55828;DHT22;41758;51.992;5.890;2024-03-07T05:44:04;8.90;67.60
55828;DHT22;41758;51.992;5.890;2024-03-07T05:46:37;8.80;67.60
55828;DHT22;41758;51.992;5.890;2024-03-07T05:49:07;8.80;67.60
55828;DHT22;41758;51.992;5.890;2024-03-07T05:51:32;8.80;67.60
55828;DHT22;41758;51.992;5.890;2024-03-07T05:53:58;8.80;67.60
55828;DHT22;41758;51.992;5.890;2024-03-07T05:56:24;8.80;67.60
55828;DHT22;41758;51.992;5.890;2024-03-07T05:58:49;8.80;67.50
55828;DHT22;41758;51.992;5.890;2024-03-07T06:01:17;8.80;67.50
55828;DHT22;41758;51.992;5.890;2024-03-07T06:03:44;8.70;67.50
55828;DHT22;41758;51.992;5.890;2024-03-07T06:06:11;8.70;67.40
55828;DHT22;41758;51.992;5.890;2024-03-07T06:08:37;8.70;67.40
55828;DHT22;41758;51.992;5.890;2024-03-07T06:11:04;8.70;67.40
55828;DHT22;41758;51.992;5.890;2024-03-07T06:13:29;8.70;67.40
55828;DHT22;41758;51.992;5.890;2024-03-07T06:15:55;8.70;67.40
55828;DHT22;41758;51.992;5.890;2024-03-07T06:18:21;8.60;67.40
55828;DHT22;41758;51.992;5.890;2024-03-07T06:20:47;8.60;67.40
55828;DHT22;41758;51.992;5.890;2024-03-07T06:23:13;8.60;67.40
55828;DHT22;41758;51.992;5.890;2024-03-07T06:25:41;8.60;67.40
55828;DHT22;41758;51.992;5.890;2024-03-07T06:28:15;8.60;67.40
55828;DHT22;41758;51.992;5.890;2024-03-07T06:30:43;8.60;67.40
55828;DHT22;41758;51.992;5.890;2024-03-07T06:33:12;8.60;67.50
55828;DHT22;41758;51.992;5.890;2024-03-07T06:35:39;8.60;67.60
55828;DHT22;41758;51.992;5.890;2024-03-07T06:38:11;8.60;67.60
55828;DHT22;41758;51.992;5.890;2024-03-07T06:40:38;8.50;67.60
55828;DHT22;41758;51.992;5.890;2024-03-07T06:43:06;8.60;67.60
55828;DHT22;41758;51.992;5.890;2024-03-07T06:45:33;8.60;67.70
55828;DHT22;41758;51.992;5.890;2024-03-07T06:48:00;8.60;67.70
55828;DHT22;41758;51.992;5.890;2024-03-07T06:50:26;8.60;67.70
55828;DHT22;41758;51.992;5.890;2024-03-07T06:52:54;8.60;67.70
55828;DHT22;41758;51.992;5.890;2024-03-07T06:55:21;8.60;67.80
55828;DHT22;41758;51.992;5.890;2024-03-07T06:57:46;8.60;67.80
55828;DHT22;41758;51.992;5.890;2024-03-07T07:00:13;8.60;67.80
55828;DHT22;41758;51.992;5.890;2024-03-07T07:02:44;8.60;67.90
55828;DHT22;41758;51.992;5.890;2024-03-07T07:05:10;8.70;67.90
55828;DHT22;41758;51.992;5.890;2024-03-07T07:07:44;8.70;67.90
55828;DHT22;41758;51.992;5.890;2024-03-07T07:10:11;8.80;68.00
55828;DHT22;41758;51.992;5.890;2024-03-07T07:12:47;8.80;68.00
55828;DHT22;41758;51.992;5.890;2024-03-07T07:15:15;8.80;68.10
55828;DHT22;41758;51.992;5.890;2024-03-07T07:17:43;8.80;68.10
55828;DHT22;41758;51.992;5.890;2024-03-07T07:20:11;8.90;68.10
55828;DHT22;41758;51.992;5.890;2024-03-07T07:22:39;8.90;68.10
55828;DHT22;41758;51.992;5.890;2024-03-07T07:25:06;9.00;68.10
55828;DHT22;41758;51.992;5.890;2024-03-07T07:27:49;9.00;68.10
55828;DHT22;41758;51.992;5.890;2024-03-07T07:30:16;9.10;68.20
55828;DHT22;41758;51.992;5.890;2024-03-07T07:32:43;9.10;68.20
55828;DHT22;41758;51.992;5.890;2024-03-07T07:35:10;9.10;68.30
55828;DHT22;41758;51.992;5.890;2024-03-07T07:37:52;9.10;68.30
55828;DHT22;41758;51.992;5.890;2024-03-07T07:40:20;9.20;68.30
55828;DHT22;41758;51.992;5.890;2024-03-07T07:42:49;9.30;68.40
55828;DHT22;41758;51.992;5.890;2024-03-07T07:45:15;9.30;68.40
55828;DHT22;41758;51.992;5.890;2024-03-07T07:47:43;9.30;68.40
55828;DHT22;41758;51.992;5.890;2024-03-07T07:50:14;9.30;68.40
55828;DHT22;41758;51.992;5.890;2024-03-07T07:52:41;9.40;68.50
55828;DHT22;41758;51.992;5.890;2024-03-07T07:55:07;9.40;68.50
55828;DHT22;41758;51.992;5.890;2024-03-07T07:57:43;9.50;68.50
55828;DHT22;41758;51.992;5.890;2024-03-07T08:00:17;9.60;68.50
55828;DHT22;41758;51.992;5.890;2024-03-07T08:02:55;9.60;68.60
55828;DHT22;41758;51.992;5.890;2024-03-07T08:05:26;9.60;68.60
55828;DHT22;41758;51.992;5.890;2024-03-07T08:07:57;9.70;68.70
55828;DHT22;41758;51.992;5.890;2024-03-07T08:10:25;9.80;68.70
55828;DHT22;41758;51.992;5.890;2024-03-07T08:12:51;9.80;68.80
55828;DHT22;41758;51.992;5.890;2024-03-07T08:15:17;9.90;68.80
55828;DHT22;41758;51.992;5.890;2024-03-07T08:17:47;9.90;68.80
55828;DHT22;41758;51.992;5.890;2024-03-07T08:20:16;9.90;68.80
55828;DHT22;41758;51.992;5.890;2024-03-07T08:22:44;9.90;68.90
55828;DHT22;41758;51.992;5.890;2024-03-07T08:25:10;10.00;68.90
55828;DHT22;41758;51.992;5.890;2024-03-07T08:27:38;10.10;68.90
55828;DHT22;41758;51.992;5.890;2024-03-07T08:30:08;10.20;68.90
55828;DHT22;41758;51.992;5.890;2024-03-07T08:32:59;10.20;68.90
55828;DHT22;41758;51.992;5.890;2024-03-07T08:35:27;10.30;68.90
55828;DHT22;41758;51.992;5.890;2024-03-07T08:37:55;10.30;69.00
55828;DHT22;41758;51.992;5.890;2024-03-07T08:40:25;10.40;69.00
55828;DHT22;41758;51.992;5.890;2024-03-07T08:42:52;10.40;69.00
55828;DHT22;41758;51.992;5.890;2024-03-07T08:45:21;10.50;69.00
55828;DHT22;41758;51.992;5.890;2024-03-07T08:47:49;10.60;69.00
55828;DHT22;41758;51.992;5.890;2024-03-07T08:50:16;10.60;69.00
55828;DHT22;41758;51.992;5.890;2024-03-07T08:52:47;10.70;69.00
55828;DHT22;41758;51.992;5.890;2024-03-07T08:55:15;10.70;69.10
55828;DHT22;41758;51.992;5.890;2024-03-07T08:57:44;10.80;69.00
55828;DHT22;41758;51.992;5.890;2024-03-07T09:00:14;10.80;69.00
55828;DHT22;41758;51.992;5.890;2024-03-07T09:02:51;10.90;69.00
55828;DHT22;41758;51.992;5.890;2024-03-07T09:05:17;10.90;69.00
55828;DHT22;41758;51.992;5.890;2024-03-07T09:07:44;11.00;69.00
55828;DHT22;41758;51.992;5.890;2024-03-07T09:10:12;11.00;69.00
55828;DHT22;41758;51.992;5.890;2024-03-07T09:12:38;11.10;68.90
55828;DHT22;41758;51.992;5.890;2024-03-07T09:15:04;11.10;69.00
55828;DHT22;41758;51.992;5.890;2024-03-07T09:17:30;11.10;69.00
55828;DHT22;41758;51.992;5.890;2024-03-07T09:19:55;11.10;68.90
55828;DHT22;41758;51.992;5.890;2024-03-07T09:22:21;11.20;69.00
55828;DHT22;41758;51.992;5.890;2024-03-07T09:24:47;11.30;69.00
55828;DHT22;41758;51.992;5.890;2024-03-07T09:27:12;11.30;69.00
55828;DHT22;41758;51.992;5.890;2024-03-07T09:29:40;11.30;69.10
55828;DHT22;41758;51.992;5.890;2024-03-07T09:32:06;11.40;69.10
55828;DHT22;41758;51.992;5.890;2024-03-07T09:34:34;11.50;69.10
55828;DHT22;41758;51.992;5.890;2024-03-07T09:37:01;11.50;69.10
55828;DHT22;41758;51.992;5.890;2024-03-07T09:39:27;11.60;69.10
55828;DHT22;41758;51.992;5.890;2024-03-07T09:41:53;11.60;69.20
55828;DHT22;41758;51.992;5.890;2024-03-07T09:44:22;11.70;69.30
55828;DHT22;41758;51.992;5.890;2024-03-07T09:46:50;11.80;69.40
55828;DHT22;41758;51.992;5.890;2024-03-07T09:49:17;11.80;69.40
55828;DHT22;41758;51.992;5.890;2024-03-07T09:51:45;11.90;69.40
55828;DHT22;41758;51.992;5.890;2024-03-07T09:54:11;12.00;69.50
55828;DHT22;41758;51.992;5.890;2024-03-07T09:56:40;12.10;69.50
55828;DHT22;41758;51.992;5.890;2024-03-07T09:59:11;12.20;69.60
55828;DHT22;41758;51.992;5.890;2024-03-07T10:01:37;12.30;69.60
55828;DHT22;41758;51.992;5.890;2024-03-07T10:04:05;12.40;69.70
55828;DHT22;41758;51.992;5.890;2024-03-07T10:06:43;12.50;69.70
55828;DHT22;41758;51.992;5.890;2024-03-07T10:09:13;12.60;69.70
55828;DHT22;41758;51.992;5.890;2024-03-07T10:11:43;12.80;69.80
55828;DHT22;41758;51.992;5.890;2024-03-07T10:14:11;12.90;69.70
55828;DHT22;41758;51.992;5.890;2024-03-07T10:16:37;12.90;69.80
55828;DHT22;41758;51.992;5.890;2024-03-07T10:19:06;13.00;69.80
55828;DHT22;41758;51.992;5.890;2024-03-07T10:21:35;13.10;69.80
55828;DHT22;41758;51.992;5.890;2024-03-07T10:24:09;13.20;69.70
55828;DHT22;41758;51.992;5.890;2024-03-07T10:26:39;13.30;69.70
55828;DHT22;41758;51.992;5.890;2024-03-07T10:29:06;13.40;69.70
55828;DHT22;41758;51.992;5.890;2024-03-07T10:31:34;13.50;69.60
55828;DHT22;41758;51.992;5.890;2024-03-07T10:34:01;13.60;69.60
55828;DHT22;41758;51.992;5.890;2024-03-07T10:36:33;13.70;69.60
55828;DHT22;41758;51.992;5.890;2024-03-07T10:39:03;13.80;69.50
55828;DHT22;41758;51.992;5.890;2024-03-07T10:41:47;13.90;69.70
55828;DHT22;41758;51.992;5.890;2024-03-07T10:44:22;14.10;69.80
55828;DHT22;41758;51.992;5.890;2024-03-07T10:46:56;14.30;70.00
55828;DHT22;41758;51.992;5.890;2024-03-07T10:49:25;14.40;70.20
55828;DHT22;41758;51.992;5.890;2024-03-07T10:54:51;14.90;70.00
55828;DHT22;41758;51.992;5.890;2024-03-07T10:57:30;15.20;69.60
55828;DHT22;41758;51.992;5.890;2024-03-07T11:00:03;15.30;69.50
55828;DHT22;41758;51.992;5.890;2024-03-07T11:02:49;15.50;69.60
55828;DHT22;41758;51.992;5.890;2024-03-07T11:05:19;15.80;69.70
55828;DHT22;41758;51.992;5.890;2024-03-07T11:07:44;15.90;69.50
55828;DHT22;41758;51.992;5.890;2024-03-07T11:10:10;16.00;69.00
55828;DHT22;41758;51.992;5.890;2024-03-07T11:12:40;16.10;68.70
55828;DHT22;41758;51.992;5.890;2024-03-07T11:15:08;16.20;68.50
55828;DHT22;41758;51.992;5.890;2024-03-07T11:17:47;16.30;68.20
55828;DHT22;41758;51.992;5.890;2024-03-07T11:20:25;16.30;67.60
55828;DHT22;41758;51.992;5.890;2024-03-07T11:22:51;16.40;67.70
55828;DHT22;41758;51.992;5.890;2024-03-07T11:25:21;16.50;67.60
55828;DHT22;41758;51.992;5.890;2024-03-07T11:27:57;16.50;67.40
55828;DHT22;41758;51.992;5.890;2024-03-07T11:30:23;16.60;66.80
55828;DHT22;41758;51.992;5.890;2024-03-07T11:32:54;16.50;66.80
55828;DHT22;41758;51.992;5.890;2024-03-07T11:35:21;16.60;66.70
55828;DHT22;41758;51.992;5.890;2024-03-07T11:37:58;16.60;66.90
55828;DHT22;41758;51.992;5.890;2024-03-07T11:42:51;16.80;67.20
55828;DHT22;41758;51.992;5.890;2024-03-07T11:45:18;17.00;67.40
55828;DHT22;41758;51.992;5.890;2024-03-07T11:47:57;17.10;67.10
55828;DHT22;41758;51.992;5.890;2024-03-07T11:50:33;17.20;67.10
55828;DHT22;41758;51.992;5.890;2024-03-07T11:53:01;17.30;67.00
55828;DHT22;41758;51.992;5.890;2024-03-07T11:55:27;17.40;66.90
55828;DHT22;41758;51.992;5.890;2024-03-07T11:58:14;17.50;66.70
55828;DHT22;41758;51.992;5.890;2024-03-07T12:00:45;17.70;66.80
55828;DHT22;41758;51.992;5.890;2024-03-07T12:03:12;17.80;66.50
55828;DHT22;41758;51.992;5.890;2024-03-07T12:05:40;17.90;66.50
55828;DHT22;41758;51.992;5.890;2024-03-07T12:08:06;18.00;66.50
55828;DHT22;41758;51.992;5.890;2024-03-07T12:10:32;18.20;67.10
55828;DHT22;41758;51.992;5.890;2024-03-07T12:12:59;18.50;66.80
55828;DHT22;41758;51.992;5.890;2024-03-07T12:15:27;18.80;66.50
55828;DHT22;41758;51.992;5.890;2024-03-07T12:17:53;19.10;66.10
55828;DHT22;41758;51.992;5.890;2024-03-07T12:20:20;19.40;65.80
55828;DHT22;41758;51.992;5.890;2024-03-07T12:23:12;19.80;65.80
55828;DHT22;41758;51.992;5.890;2024-03-07T12:25:40;20.20;64.90
55828;DHT22;41758;51.992;5.890;2024-03-07T12:28:12;20.50;64.70
55828;DHT22;41758;51.992;5.890;2024-03-07T12:30:51;20.80;64.30
55828;DHT22;41758;51.992;5.890;2024-03-07T12:33:18;20.90;64.10
55828;DHT22;41758;51.992;5.890;2024-03-07T12:35:48;21.10;63.50
55828;DHT22;41758;51.992;5.890;2024-03-07T12:38:21;21.30;62.40
55828;DHT22;41758;51.992;5.890;2024-03-07T12:41:02;21.30;62.40
55828;DHT22;41758;51.992;5.890;2024-03-07T12:43:31;21.60;61.80
55828;DHT22;41758;51.992;5.890;2024-03-07T12:45:58;21.70;61.70
55828;DHT22;41758;51.992;5.890;2024-03-07T12:48:24;22.00;62.20
55828;DHT22;41758;51.992;5.890;2024-03-07T12:50:51;22.60;62.00
55828;DHT22;41758;51.992;5.890;2024-03-07T12:53:20;23.00;61.00
55828;DHT22;41758;51.992;5.890;2024-03-07T12:55:47;23.30;60.60
55828;DHT22;41758;51.992;5.890;2024-03-07T12:58:14;23.70;60.50
55828;DHT22;41758;51.992;5.890;2024-03-07T13:00:41;24.00;59.40
55828;DHT22;41758;51.992;5.890;2024-03-07T13:03:07;24.10;58.20
55828;DHT22;41758;51.992;5.890;2024-03-07T13:05:39;23.80;57.50
55828;DHT22;41758;51.992;5.890;2024-03-07T13:08:09;23.60;57.50
55828;DHT22;41758;51.992;5.890;2024-03-07T13:10:44;23.30;56.80
55828;DHT22;41758;51.992;5.890;2024-03-07T13:13:11;22.90;56.30
55828;DHT22;41758;51.992;5.890;2024-03-07T13:15:40;22.40;56.70
55828;DHT22;41758;51.992;5.890;2024-03-07T13:18:08;22.10;56.70
55828;DHT22;41758;51.992;5.890;2024-03-07T13:20:37;21.70;56.70
55828;DHT22;41758;51.992;5.890;2024-03-07T13:23:03;21.40;56.80
55828;DHT22;41758;51.992;5.890;2024-03-07T13:25:29;21.10;57.30
55828;DHT22;41758;51.992;5.890;2024-03-07T13:28:08;21.10;57.70
55828;DHT22;41758;51.992;5.890;2024-03-07T13:30:39;20.90;57.60
55828;DHT22;41758;51.992;5.890;2024-03-07T13:33:05;20.60;57.40
55828;DHT22;41758;51.992;5.890;2024-03-07T13:35:31;20.30;56.50
55828;DHT22;41758;51.992;5.890;2024-03-07T13:37:57;20.00;56.30
55828;DHT22;41758;51.992;5.890;2024-03-07T13:40:24;19.70;56.70
55828;DHT22;41758;51.992;5.890;2024-03-07T13:43:00;19.40;57.20
55828;DHT22;41758;51.992;5.890;2024-03-07T13:45:28;19.20;57.60
55828;DHT22;41758;51.992;5.890;2024-03-07T13:47:58;19.00;57.20
55828;DHT22;41758;51.992;5.890;2024-03-07T13:50:28;18.80;57.60
55828;DHT22;41758;51.992;5.890;2024-03-07T13:52:56;18.60;57.60
55828;DHT22;41758;51.992;5.890;2024-03-07T14:07:42;17.50;58.40
55828;DHT22;41758;51.992;5.890;2024-03-07T14:13:44;17.00;58.90
55828;DHT22;41758;51.992;5.890;2024-03-07T14:22:39;16.70;59.70
55828;DHT22;41758;51.992;5.890;2024-03-07T14:25:32;16.60;59.70
55828;DHT22;41758;51.992;5.890;2024-03-07T14:31:07;16.50;59.90
55828;DHT22;41758;51.992;5.890;2024-03-07T14:34:22;16.50;60.00
55828;DHT22;41758;51.992;5.890;2024-03-07T14:36:53;16.50;59.90
55828;DHT22;41758;51.992;5.890;2024-03-07T14:39:22;16.40;60.20
55828;DHT22;41758;51.992;5.890;2024-03-07T14:41:52;16.40;60.50
55828;DHT22;41758;51.992;5.890;2024-03-07T14:44:20;16.50;60.30
55828;DHT22;41758;51.992;5.890;2024-03-07T14:46:50;16.50;60.50
55828;DHT22;41758;51.992;5.890;2024-03-07T14:49:18;16.50;60.60
55828;DHT22;41758;51.992;5.890;2024-03-07T14:51:44;16.60;60.30
55828;DHT22;41758;51.992;5.890;2024-03-07T14:54:12;16.70;60.20
55828;DHT22;41758;51.992;5.890;2024-03-07T14:56:37;16.70;58.90
55828;DHT22;41758;51.992;5.890;2024-03-07T14:59:03;16.70;58.80
55828;DHT22;41758;51.992;5.890;2024-03-07T15:01:31;16.80;58.60
55828;DHT22;41758;51.992;5.890;2024-03-07T15:04:00;16.80;56.50
55828;DHT22;41758;51.992;5.890;2024-03-07T15:06:26;16.70;56.90
55828;DHT22;41758;51.992;5.890;2024-03-07T15:08:51;16.70;56.90
55828;DHT22;41758;51.992;5.890;2024-03-07T15:11:34;16.60;57.20
55828;DHT22;41758;51.992;5.890;2024-03-07T15:14:00;16.50;57.60
55828;DHT22;41758;51.992;5.890;2024-03-07T15:16:30;16.50;57.50
55828;DHT22;41758;51.992;5.890;2024-03-07T15:19:06;16.50;57.70
55828;DHT22;41758;51.992;5.890;2024-03-07T15:21:33;16.50;57.40
55828;DHT22;41758;51.992;5.890;2024-03-07T15:23:59;16.50;58.00
55828;DHT22;41758;51.992;5.890;2024-03-07T15:26:28;16.60;57.80
55828;DHT22;41758;51.992;5.890;2024-03-07T15:28:56;16.60;58.00
55828;DHT22;41758;51.992;5.890;2024-03-07T15:31:23;16.60;58.40
55828;DHT22;41758;51.992;5.890;2024-03-07T15:33:49;16.70;58.60
55828;DHT22;41758;51.992;5.890;2024-03-07T15:36:20;16.70;58.60
55828;DHT22;41758;51.992;5.890;2024-03-07T15:38:47;16.70;58.50
55828;DHT22;41758;51.992;5.890;2024-03-07T15:41:14;16.60;58.60
55828;DHT22;41758;51.992;5.890;2024-03-07T15:43:40;16.50;58.50
55828;DHT22;41758;51.992;5.890;2024-03-07T15:46:14;16.40;58.50
55828;DHT22;41758;51.992;5.890;2024-03-07T15:48:44;16.30;58.50
55828;DHT22;41758;51.992;5.890;2024-03-07T15:51:10;16.10;58.80
55828;DHT22;41758;51.992;5.890;2024-03-07T15:53:40;16.10;59.10
55828;DHT22;41758;51.992;5.890;2024-03-07T15:56:07;16.10;59.40
55828;DHT22;41758;51.992;5.890;2024-03-07T15:58:33;16.10;59.40
55828;DHT22;41758;51.992;5.890;2024-03-07T16:00:59;16.10;59.50
55828;DHT22;41758;51.992;5.890;2024-03-07T16:03:25;16.10;59.40
55828;DHT22;41758;51.992;5.890;2024-03-07T16:05:51;16.00;59.30
55828;DHT22;41758;51.992;5.890;2024-03-07T16:08:20;16.00;59.30
55828;DHT22;41758;51.992;5.890;2024-03-07T16:10:46;15.90;59.30
55828;DHT22;41758;51.992;5.890;2024-03-07T16:13:13;15.90;59.40